Time,TemperatureF,DewpointF,PressureIn,WindDirection,WindDirectionDegrees,WindSpeedMPH,WindSpeedGustMPH,Humidity,HourlyPrecipIn,Conditions,Clouds,dailyrainin,SolarRadiationWatts/m^2,SoftwareType,DateUTC
2013-02-06 00:01:00,35.0,21.0,-100.00,South,185,0.0,0.0,57,0.00,,,0.00,0.000000,,2013-02-06 08:01:00,
2013-02-06 00:11:00,35.0,21.0,-100.00,South,185,0.0,0.0,57,0.00,,,0.00,0.000000,,2013-02-06 08:11:00,
2013-02-06 00:21:00,35.0,21.0,-100.00,South,185,0.0,0.0,57,0.00,,,0.00,0.000000,,2013-02-06 08:21:00,
2013-02-06 00:31:00,35.0,21.0,-100.00,South,185,0.0,0.0,57,0.00,,,0.00,0.000000,,2013-02-06 08:31:00,
2013-02-06 01:01:00,34.0,23.0,-100.00,NNE,33,0.0,0.0,63,0.00,,,0.00,0.000000,,2013-02-06 09:01:00,
2013-02-06 01:11:00,34.0,23.0,-100.00,NNE,33,0.0,0.0,63,0.00,,,0.00,0.000000,,2013-02-06 09:11:00,
2013-02-06 01:21:00,34.0,23.0,-100.00,NNE,33,0.0,0.0,63,0.00,,,0.00,0.000000,,2013-02-06 09:21:00,
2013-02-06 01:31:00,34.0,23.0,-100.00,NNE,33,0.0,0.0,63,0.00,,,0.00,0.000000,,2013-02-06 09:31:00,
2013-02-06 02:01:00,36.0,20.0,-100.00,SSW,193,0.0,7.0,51,0.00,,,0.00,0.000000,,2013-02-06 10:01:00,
2013-02-06 02:11:00,36.0,20.0,-100.00,SSW,193,0.0,7.0,51,0.00,,,0.00,0.000000,,2013-02-06 10:11:00,
2013-02-06 02:21:00,36.0,20.0,-100.00,SSW,193,0.0,7.0,51,0.00,,,0.00,0.000000,,2013-02-06 10:21:00,
2013-02-06 02:31:00,36.0,20.0,-100.00,SSW,193,0.0,7.0,51,0.00,,,0.00,0.000000,,2013-02-06 10:31:00,
2013-02-06 02:52:00,33.0,22.0,-100.00,South,182,0.0,4.0,63,0.00,,,0.00,0.000000,,2013-02-06 10:52:00,
2013-02-06 03:01:00,33.0,22.0,-100.00,South,182,0.0,4.0,63,0.00,,,0.00,0.000000,,2013-02-06 11:01:00,
2013-02-06 03:11:00,33.0,22.0,-100.00,South,182,0.0,4.0,63,0.00,,,0.00,0.000000,,2013-02-06 11:11:00,
2013-02-06 03:22:00,33.0,22.0,-100.00,South,182,0.0,4.0,63,0.00,,,0.00,0.000000,,2013-02-06 11:22:00,
2013-02-06 03:31:00,33.0,22.0,-100.00,South,182,0.0,4.0,63,0.00,,,0.00,0.000000,,2013-02-06 11:31:00,
2013-02-06 04:01:00,30.0,18.0,-100.00,NNW,336,0.0,3.0,60,0.00,,,0.00,0.000000,,2013-02-06 12:01:00,
2013-02-06 04:12:00,30.0,18.0,-100.00,NNW,336,0.0,3.0,60,0.00,,,0.00,0.000000,,2013-02-06 12:12:00,
2013-02-06 04:22:00,30.0,18.0,-100.00,NNW,336,0.0,3.0,60,0.00,,,0.00,0.000000,,2013-02-06 12:22:00,
2013-02-06 04:32:00,30.0,18.0,-100.00,NNW,336,0.0,3.0,60,0.00,,,0.00,0.000000,,2013-02-06 12:32:00,
2013-02-06 05:01:00,26.0,17.0,-100.00,NW,315,0.0,2.0,68,0.00,,,0.00,0.000000,,2013-02-06 13:01:00,
2013-02-06 05:11:00,26.0,17.0,-100.00,NW,315,0.0,2.0,68,0.00,,,0.00,0.000000,,2013-02-06 13:11:00,
2013-02-06 05:21:00,26.0,17.0,-100.00,NW,315,0.0,2.0,68,0.00,,,0.00,0.000000,,2013-02-06 13:21:00,
2013-02-06 05:31:00,26.0,17.0,-100.00,NW,315,0.0,2.0,68,0.00,,,0.00,0.000000,,2013-02-06 13:31:00,
2013-02-06 05:52:00,28.0,13.0,-100.00,NW,308,0.0,5.0,53,0.00,,,0.00,0.000000,,2013-02-06 13:52:00,
2013-02-06 06:01:00,28.0,13.0,-100.00,NW,308,0.0,5.0,53,0.00,,,0.00,0.000000,,2013-02-06 14:01:00,
2013-02-06 06:11:00,28.0,13.0,-100.00,NW,308,0.0,5.0,53,0.00,,,0.00,0.000000,,2013-02-06 14:11:00,
2013-02-06 06:21:00,28.0,13.0,-100.00,NW,308,0.0,5.0,53,0.00,,,0.00,0.000000,,2013-02-06 14:21:00,
2013-02-06 06:31:00,28.0,13.0,-100.00,NW,308,0.0,5.0,53,0.00,,,0.00,0.000000,,2013-02-06 14:31:00,
2013-02-06 06:52:00,29.0,10.0,-100.00,ENE,72,0.0,6.0,45,0.00,,,0.00,0.000000,,2013-02-06 14:52:00,
2013-02-06 07:01:00,29.0,10.0,-100.00,ENE,72,0.0,6.0,45,0.00,,,0.00,0.000000,,2013-02-06 15:01:00,
2013-02-06 07:11:00,29.0,10.0,-100.00,ENE,72,0.0,6.0,45,0.00,,,0.00,0.000000,,2013-02-06 15:11:00,
2013-02-06 07:21:00,29.0,10.0,-100.00,ENE,72,0.0,6.0,45,0.00,,,0.00,0.000000,,2013-02-06 15:21:00,
2013-02-06 07:31:00,29.0,10.0,-100.00,ENE,72,0.0,6.0,45,0.00,,,0.00,0.000000,,2013-02-06 15:31:00,
2013-02-06 08:01:00,29.0,15.0,-100.00,ENE,62,0.0,2.0,56,0.00,,,0.00,21.000000,,2013-02-06 16:01:00,
2013-02-06 08:11:00,29.0,15.0,-100.00,ENE,62,0.0,2.0,56,0.00,,,0.00,21.000000,,2013-02-06 16:11:00,
2013-02-06 08:21:00,29.0,15.0,-100.00,ENE,62,0.0,2.0,56,0.00,,,0.00,21.000000,,2013-02-06 16:21:00,
2013-02-06 08:32:00,29.0,15.0,-100.00,ENE,62,0.0,2.0,56,0.00,,,0.00,21.000000,,2013-02-06 16:32:00,
2013-02-06 08:52:00,43.0,13.0,-100.00,North,6,3.0,8.0,29,0.00,,,0.00,284.000000,,2013-02-06 16:52:00,
2013-02-06 09:01:00,43.0,13.0,-100.00,North,6,3.0,8.0,29,0.00,,,0.00,284.000000,,2013-02-06 17:01:00,
2013-02-06 10:01:00,48.0,16.0,-100.00,North,3,4.0,13.0,28,0.00,,,0.00,527.000000,,2013-02-06 18:01:00,
2013-02-06 11:01:00,50.0,16.0,-100.00,NNE,23,3.0,14.0,25,-99.99,,,0.00,763.000000,,2013-02-06 19:01:00,
2013-02-06 12:01:00,48.0,15.0,-100.00,North,3,5.0,13.0,26,-99.99,,,0.00,770.000000,,2013-02-06 20:01:00,
2013-02-06 12:11:00,48.0,15.0,-100.00,North,3,5.0,13.0,26,-99.99,,,0.00,770.000000,,2013-02-06 20:11:00,
2013-02-06 12:21:00,48.0,15.0,-100.00,North,3,5.0,13.0,26,-99.99,,,0.00,770.000000,,2013-02-06 20:21:00,
2013-02-06 12:31:00,48.0,15.0,-100.00,North,3,5.0,13.0,26,-99.99,,,0.00,770.000000,,2013-02-06 20:31:00,
2013-02-06 13:01:00,50.0,19.0,-100.00,North,2,4.0,12.0,29,0.00,,,0.00,623.000000,,2013-02-06 21:01:00,
2013-02-06 13:11:00,50.0,19.0,-100.00,North,2,4.0,12.0,29,0.00,,,0.00,623.000000,,2013-02-06 21:11:00,
2013-02-06 13:21:00,50.0,19.0,-100.00,North,2,4.0,12.0,29,0.00,,,0.00,623.000000,,2013-02-06 21:21:00,
2013-02-06 13:31:00,50.0,19.0,-100.00,North,2,4.0,12.0,29,0.00,,,0.00,623.000000,,2013-02-06 21:31:00,
2013-02-06 14:01:00,52.0,4.0,-100.00,NNW,345,2.0,11.0,14,0.00,,,0.00,890.000000,,2013-02-06 22:01:00,
2013-02-06 14:11:00,52.0,4.0,-100.00,NNW,345,2.0,11.0,14,0.00,,,0.00,890.000000,,2013-02-06 22:11:00,
2013-02-06 14:21:00,52.0,4.0,-100.00,NNW,345,2.0,11.0,14,0.00,,,0.00,890.000000,,2013-02-06 22:21:00,
2013-02-06 14:31:00,52.0,4.0,-100.00,NNW,345,2.0,11.0,14,0.00,,,0.00,890.000000,,2013-02-06 22:31:00,
2013-02-06 15:01:00,50.0,1.0,-100.00,North,349,3.0,9.0,13,0.00,,,0.00,774.000000,,2013-02-06 23:01:00,
2013-02-06 15:11:00,50.0,1.0,-100.00,North,349,3.0,9.0,13,0.00,,,0.00,774.000000,,2013-02-06 23:11:00,
2013-02-06 15:21:00,50.0,1.0,-100.00,North,349,3.0,9.0,13,0.00,,,0.00,774.000000,,2013-02-06 23:21:00,
2013-02-06 15:31:00,50.0,1.0,-100.00,North,349,3.0,9.0,13,0.00,,,0.00,774.000000,,2013-02-06 23:31:00,
2013-02-06 16:01:00,49.0,6.0,-100.00,NNW,342,3.0,10.0,17,0.00,,,-99.99,573.000000,,2013-02-07 00:01:00,
2013-02-06 16:11:00,49.0,6.0,-100.00,NNW,342,3.0,10.0,17,0.00,,,-99.99,573.000000,,2013-02-07 00:11:00,
2013-02-06 16:21:00,49.0,6.0,-100.00,NNW,342,3.0,10.0,17,0.00,,,-99.99,573.000000,,2013-02-07 00:21:00,
2013-02-06 16:31:00,49.0,6.0,-100.00,NNW,342,3.0,10.0,17,0.00,,,-99.99,573.000000,,2013-02-07 00:31:00,
2013-02-06 17:01:00,41.0,6.0,-100.00,NNW,336,0.0,9.0,23,0.00,,,0.00,239.000000,,2013-02-07 01:01:00,
2013-02-06 17:11:00,41.0,6.0,-100.00,NNW,336,0.0,9.0,23,0.00,,,0.00,239.000000,,2013-02-07 01:11:00,
2013-02-06 17:21:00,41.0,6.0,-100.00,NNW,336,0.0,9.0,23,0.00,,,0.00,239.000000,,2013-02-07 01:21:00,
2013-02-06 17:31:00,41.0,6.0,-100.00,NNW,336,0.0,9.0,23,0.00,,,0.00,239.000000,,2013-02-07 01:31:00,
2013-02-06 17:52:00,36.0,4.0,-100.00,SSW,200,0.0,6.0,26,0.00,,,0.00,14.000000,,2013-02-07 01:52:00,
2013-02-06 18:01:00,36.0,4.0,-100.00,SSW,200,0.0,6.0,26,0.00,,,0.00,14.000000,,2013-02-07 02:01:00,
2013-02-06 18:11:00,36.0,4.0,-100.00,SSW,200,0.0,6.0,26,0.00,,,0.00,14.000000,,2013-02-07 02:11:00,
2013-02-06 18:21:00,36.0,4.0,-100.00,SSW,200,0.0,6.0,26,0.00,,,0.00,14.000000,,2013-02-07 02:21:00,
2013-02-06 18:31:00,36.0,4.0,-100.00,SSW,200,0.0,6.0,26,0.00,,,0.00,14.000000,,2013-02-07 02:31:00,
2013-02-06 19:02:00,29.0,8.0,-100.00,North,354,0.0,0.0,41,0.00,,,0.00,0.000000,,2013-02-07 03:02:00,
2013-02-06 19:11:00,29.0,8.0,-100.00,North,354,0.0,0.0,41,0.00,,,0.00,0.000000,,2013-02-07 03:11:00,
2013-02-06 19:21:00,29.0,8.0,-100.00,North,354,0.0,0.0,41,0.00,,,0.00,0.000000,,2013-02-07 03:21:00,
2013-02-06 19:31:00,29.0,8.0,-100.00,North,354,0.0,0.0,41,0.00,,,0.00,0.000000,,2013-02-07 03:31:00,
2013-02-06 20:01:00,28.0,5.0,-100.00,North,7,0.0,0.0,37,0.00,,,0.00,0.000000,,2013-02-07 04:01:00,
2013-02-06 20:11:00,28.0,5.0,-100.00,North,7,0.0,0.0,37,0.00,,,0.00,0.000000,,2013-02-07 04:11:00,
2013-02-06 20:22:00,28.0,5.0,-100.00,North,7,0.0,0.0,37,0.00,,,0.00,0.000000,,2013-02-07 04:22:00,
2013-02-06 20:31:00,28.0,5.0,-100.00,North,7,0.0,0.0,37,0.00,,,0.00,0.000000,,2013-02-07 04:31:00,
2013-02-06 21:01:00,26.0,4.0,-100.00,North,356,0.0,0.0,38,0.00,,,0.00,0.000000,,2013-02-07 05:01:00,
2013-02-06 21:11:00,26.0,4.0,-100.00,North,356,0.0,0.0,38,0.00,,,0.00,0.000000,,2013-02-07 05:11:00,
2013-02-06 21:21:00,26.0,4.0,-100.00,North,356,0.0,0.0,38,0.00,,,0.00,0.000000,,2013-02-07 05:21:00,
2013-02-06 21:32:00,26.0,4.0,-100.00,North,356,0.0,0.0,38,0.00,,,0.00,0.000000,,2013-02-07 05:32:00,
2013-02-06 22:02:00,26.0,4.0,-100.00,North,10,0.0,0.0,39,0.00,,,0.00,0.000000,,2013-02-07 06:02:00,
2013-02-06 22:11:00,26.0,4.0,-100.00,North,10,0.0,0.0,39,0.00,,,0.00,0.000000,,2013-02-07 06:11:00,
2013-02-06 22:22:00,26.0,4.0,-100.00,North,10,0.0,0.0,39,0.00,,,0.00,0.000000,,2013-02-07 06:22:00,
2013-02-06 22:31:00,26.0,4.0,-100.00,North,10,0.0,0.0,39,0.00,,,0.00,0.000000,,2013-02-07 06:31:00,
2013-02-06 22:52:00,27.0,1.0,-100.00,North,357,0.0,0.0,32,0.00,,,0.00,0.000000,,2013-02-07 06:52:00,
2013-02-06 23:01:00,27.0,1.0,-100.00,North,357,0.0,0.0,32,0.00,,,0.00,0.000000,,2013-02-07 07:01:00,
2013-02-06 23:11:00,27.0,1.0,-100.00,North,357,0.0,0.0,32,0.00,,,0.00,0.000000,,2013-02-07 07:11:00,
2013-02-06 23:21:00,27.0,1.0,-100.00,North,357,0.0,0.0,32,0.00,,,0.00,0.000000,,2013-02-07 07:21:00,
2013-02-06 23:31:00,27.0,1.0,-100.00,North,357,0.0,0.0,32,0.00,,,0.00,0.000000,,2013-02-07 07:31:00,
2013-02-06 23:52:00,26.0,2.0,-100.00,North,1,0.0,0.0,34,0.00,,,0.00,0.000000,,2013-02-07 07:52:00,